createdAt,value
2023-02-19T00:01:55.044Z,73.59
2023-02-19T00:04:23.929Z,73.45
2023-02-19T00:06:52.445Z,73.42
2023-02-19T00:09:21.835Z,73.38
2023-02-19T00:11:50.110Z,73.35
2023-02-19T00:14:21.251Z,73.44
2023-02-19T00:16:49.876Z,73.45
2023-02-19T00:19:20.378Z,73.48
2023-02-19T00:21:52.325Z,73.48
2023-02-19T00:24:21.627Z,73.62
2023-02-19T00:26:49.973Z,73.55
2023-02-19T00:29:21.113Z,73.44
2023-02-19T00:31:49.401Z,73.18
2023-02-19T00:34:17.564Z,73.06
2023-02-19T00:36:45.918Z,73.21
2023-02-19T00:39:18.618Z,73.05
2023-02-19T00:41:47.463Z,72.99
2023-02-19T00:44:15.741Z,72.86
2023-02-19T00:46:47.496Z,72.70
2023-02-19T00:49:19.301Z,72.57
2023-02-19T00:51:48.454Z,72.31
2023-02-19T00:54:17.356Z,72.24
2023-02-19T00:56:45.659Z,72.00
2023-02-19T00:59:14.564Z,71.99
2023-02-19T01:01:44.671Z,71.90
2023-02-19T01:04:13.096Z,72.02
2023-02-19T01:06:41.963Z,71.96
2023-02-19T01:09:10.259Z,72.04
2023-02-19T01:11:38.548Z,72.02
2023-02-19T01:14:06.870Z,71.99
2023-02-19T01:16:35.752Z,71.80
2023-02-19T01:19:04.219Z,71.82
2023-02-19T01:21:32.532Z,72.03
2023-02-19T01:24:00.873Z,71.98
2023-02-19T01:26:31.722Z,71.97
2023-02-19T01:29:01.186Z,71.95
2023-02-19T01:31:30.187Z,71.94
2023-02-19T01:34:02.503Z,71.93
2023-02-19T01:36:33.993Z,72.01
2023-02-19T01:39:05.303Z,72.01
2023-02-19T01:41:38.896Z,72.10
2023-02-19T01:44:15.823Z,72.05
2023-02-19T01:46:48.924Z,71.93
2023-02-19T01:49:34.970Z,71.97
2023-02-19T01:52:15.785Z,72.16
2023-02-19T01:54:46.066Z,72.05
2023-02-19T01:57:20.823Z,71.91
2023-02-19T01:59:54.958Z,71.96
2023-02-19T02:02:25.203Z,71.92
2023-02-19T02:04:54.196Z,71.75
2023-02-19T02:07:41.693Z,71.82
2023-02-19T02:10:21.835Z,71.91
2023-02-19T02:12:56.579Z,71.81
2023-02-19T02:15:30.108Z,71.72
2023-02-19T02:18:29.310Z,71.64
2023-02-19T02:20:57.297Z,71.78
2023-02-19T02:23:36.295Z,71.72
2023-02-19T02:26:16.988Z,71.72
2023-02-19T02:29:39.452Z,71.66
2023-02-19T02:32:16.174Z,71.74
2023-02-19T02:34:52.832Z,71.88
2023-02-19T02:37:22.734Z,71.99
2023-02-19T02:39:53.090Z,72.03
2023-02-19T02:42:28.007Z,72.02
2023-02-19T02:45:36.803Z,72.11
2023-02-19T02:48:31.732Z,72.19
2023-02-19T02:51:10.463Z,72.28
2023-02-19T02:54:26.328Z,72.31
2023-02-19T02:56:56.636Z,72.40
2023-02-19T02:59:27.841Z,72.28
2023-02-19T03:02:20.968Z,72.34
2023-02-19T03:05:07.695Z,72.60
2023-02-19T03:07:50.450Z,72.77
2023-02-19T03:10:26.420Z,73.02
2023-02-19T03:13:16.092Z,73.42
2023-02-19T03:16:14.193Z,73.73
2023-02-19T03:19:04.045Z,73.91
2023-02-19T03:21:35.085Z,74.05
2023-02-19T03:24:22.854Z,74.28
2023-02-19T03:26:54.246Z,74.34
2023-02-19T03:29:26.331Z,74.36
2023-02-19T03:32:19.155Z,74.52
2023-02-19T03:34:54.137Z,74.36
2023-02-19T03:37:32.752Z,74.47
2023-02-19T03:40:01.003Z,74.57
2023-02-19T03:42:45.371Z,74.55
2023-02-19T03:45:23.572Z,74.75
2023-02-19T03:48:06.548Z,74.85
2023-02-19T03:51:07.270Z,74.90
2023-02-19T03:53:57.442Z,75.15
2023-02-19T03:56:30.940Z,75.27
2023-02-19T03:59:09.696Z,75.85
2023-02-19T04:01:44.318Z,76.10
2023-02-19T04:04:23.467Z,76.47
2023-02-19T04:06:55.618Z,77.07
2023-02-19T04:09:29.279Z,77.15
2023-02-19T04:12:02.399Z,77.03
2023-02-19T04:14:41.228Z,76.93
2023-02-19T04:17:17.149Z,77.24
2023-02-19T04:19:48.552Z,77.56
2023-02-19T04:22:17.768Z,77.63
2023-02-19T04:24:52.232Z,77.63
2023-02-19T04:27:20.530Z,77.99
2023-02-19T04:29:48.798Z,78.27
2023-02-19T04:32:16.978Z,78.41
2023-02-19T04:34:45.102Z,78.43
2023-02-19T04:37:13.452Z,78.56
2023-02-19T04:39:41.563Z,78.61
2023-02-19T04:42:11.162Z,78.82
2023-02-19T04:44:39.247Z,78.80
2023-02-19T04:47:07.452Z,78.95
2023-02-19T04:49:35.661Z,79.21
2023-02-19T04:52:03.885Z,79.38
2023-02-19T04:54:32.003Z,79.27
2023-02-19T04:57:00.142Z,79.52
2023-02-19T04:59:28.441Z,79.88
2023-02-19T05:01:58.085Z,79.99
2023-02-19T05:04:26.350Z,80.06
2023-02-19T05:06:54.546Z,79.85
2023-02-19T05:09:24.283Z,79.83
2023-02-19T05:11:52.368Z,79.77
2023-02-19T05:14:20.628Z,80.27
2023-02-19T05:16:48.771Z,80.53
2023-02-19T05:19:16.972Z,80.45
2023-02-19T05:21:45.125Z,80.36
2023-02-19T05:24:13.430Z,80.28
2023-02-19T05:26:41.905Z,80.13
2023-02-19T05:29:11.288Z,79.77
2023-02-19T05:31:39.584Z,79.82
2023-02-19T05:34:07.963Z,80.03
2023-02-19T05:36:37.321Z,80.05
2023-02-19T05:39:07.432Z,80.35
2023-02-19T05:41:35.629Z,80.70
2023-02-19T05:44:04.753Z,81.06
2023-02-19T05:46:33.331Z,81.13
2023-02-19T05:49:01.607Z,80.96
2023-02-19T05:51:30.348Z,80.68
2023-02-19T05:53:58.651Z,80.26
2023-02-19T05:56:40.219Z,79.96
2023-02-19T05:59:16.835Z,79.80
2023-02-19T06:01:45.998Z,79.42
2023-02-19T06:04:15.640Z,79.29
2023-02-19T06:06:43.826Z,78.94
2023-02-19T06:09:12.633Z,78.60
2023-02-19T06:11:40.877Z,78.57
2023-02-19T06:14:10.734Z,78.12
2023-02-19T06:16:38.980Z,77.72
2023-02-19T06:19:07.062Z,76.97
2023-02-19T06:21:35.493Z,76.92
2023-02-19T06:24:09.577Z,76.74
2023-02-19T06:26:38.611Z,76.69
2023-02-19T06:29:07.135Z,76.50
2023-02-19T06:31:35.395Z,76.46
2023-02-19T06:34:05.521Z,76.52
2023-02-19T06:36:33.738Z,76.57
2023-02-19T06:39:04.759Z,76.15
2023-02-19T06:41:33.301Z,75.93
2023-02-19T06:44:01.551Z,75.88
2023-02-19T06:46:31.029Z,75.84
2023-02-19T06:48:59.294Z,75.41
2023-02-19T06:51:29.882Z,75.08
2023-02-19T06:53:58.938Z,74.74
2023-02-19T06:56:39.611Z,74.41
2023-02-19T06:59:11.024Z,74.19
2023-02-19T07:01:40.528Z,74.01
2023-02-19T07:04:09.185Z,73.86
2023-02-19T07:06:38.043Z,73.88
2023-02-19T07:09:07.821Z,74.01
2023-02-19T07:11:39.079Z,73.81
2023-02-19T07:14:09.136Z,73.18
2023-02-19T07:16:37.671Z,71.16
2023-02-19T07:19:05.852Z,70.47
2023-02-19T07:21:37.808Z,69.91
2023-02-19T07:24:06.777Z,69.48
2023-02-19T07:26:35.185Z,69.24
2023-02-19T07:29:04.076Z,69.21
2023-02-19T07:31:32.302Z,68.68
2023-02-19T07:34:00.587Z,68.31
2023-02-19T07:36:28.934Z,68.18
2023-02-19T07:38:58.550Z,67.87
2023-02-19T07:41:27.886Z,67.93
2023-02-19T07:43:58.577Z,67.52
2023-02-19T07:46:27.152Z,66.76
2023-02-19T07:48:55.289Z,66.12
2023-02-19T07:51:23.548Z,65.66
2023-02-19T07:53:52.096Z,65.67
2023-02-19T07:56:21.130Z,65.27
2023-02-19T07:58:49.716Z,64.42
2023-02-19T08:01:42.113Z,64.35
2023-02-19T08:04:12.183Z,63.51
2023-02-19T08:06:41.405Z,62.20
2023-02-19T08:09:10.271Z,61.51
2023-02-19T08:11:57.078Z,61.00
2023-02-19T08:14:28.790Z,60.02
2023-02-19T08:16:57.249Z,59.24
2023-02-19T08:19:25.846Z,58.74
2023-02-19T08:21:54.451Z,58.20
2023-02-19T08:24:22.567Z,57.29
2023-02-19T08:26:51.378Z,56.28
2023-02-19T08:29:19.817Z,54.59
2023-02-19T08:31:48.251Z,53.91
2023-02-19T08:34:16.424Z,52.40
2023-02-19T08:36:44.680Z,51.88
2023-02-19T08:39:12.808Z,51.19
2023-02-19T08:41:40.993Z,51.31
2023-02-19T08:44:09.212Z,50.17
2023-02-19T08:46:38.129Z,50.25
2023-02-19T08:49:06.409Z,49.66
2023-02-19T08:51:34.707Z,50.20
2023-02-19T08:54:04.440Z,50.64
2023-02-19T08:56:32.648Z,50.88
2023-02-19T08:59:00.916Z,50.52
2023-02-19T09:01:29.083Z,50.37
2023-02-19T09:03:57.429Z,49.97
2023-02-19T09:06:25.782Z,49.18
2023-02-19T09:08:54.106Z,49.56
2023-02-19T09:11:22.317Z,49.56
2023-02-19T09:13:50.565Z,48.46
2023-02-19T09:16:18.733Z,47.61
2023-02-19T09:18:47.108Z,48.18
2023-02-19T09:21:15.338Z,47.59
2023-02-19T09:23:43.548Z,46.53
2023-02-19T09:26:11.734Z,46.00
2023-02-19T09:28:42.099Z,46.55
2023-02-19T09:31:15.820Z,45.21
2023-02-19T09:33:45.815Z,43.76
2023-02-19T09:36:15.856Z,43.09
2023-02-19T09:38:44.549Z,42.51
2023-02-19T09:41:29.470Z,41.63
2023-02-19T09:44:00.227Z,41.34
2023-02-19T09:46:36.306Z,41.13
2023-02-19T09:49:25.994Z,41.10
2023-02-19T09:52:18.313Z,41.38
2023-02-19T09:54:47.775Z,41.44
2023-02-19T09:57:19.349Z,41.79
2023-02-19T09:59:54.350Z,42.64
2023-02-19T10:02:25.953Z,42.54
2023-02-19T10:04:54.645Z,42.33
2023-02-19T10:07:38.579Z,42.61
2023-02-19T10:10:29.148Z,42.69
2023-02-19T10:13:11.894Z,43.10
2023-02-19T10:15:52.353Z,43.18
2023-02-19T10:18:38.405Z,42.94
2023-02-19T10:21:07.455Z,42.80
2023-02-19T10:23:35.799Z,42.87
2023-02-19T10:26:04.148Z,42.80
2023-02-19T10:28:35.296Z,43.47
2023-02-19T10:31:07.166Z,43.66
2023-02-19T10:33:58.216Z,43.36
2023-02-19T10:36:35.814Z,43.29
2023-02-19T10:39:21.815Z,43.29
2023-02-19T10:41:51.523Z,43.68
2023-02-19T10:44:27.914Z,43.43
2023-02-19T10:46:59.613Z,43.14
2023-02-19T10:49:30.884Z,43.34
2023-02-19T10:52:05.515Z,43.40
2023-02-19T10:54:35.587Z,43.42
2023-02-19T10:57:15.990Z,42.83
2023-02-19T10:59:50.685Z,43.05
2023-02-19T11:02:20.937Z,43.15
2023-02-19T11:05:09.581Z,43.26
2023-02-19T11:07:43.208Z,43.32
2023-02-19T11:10:31.114Z,43.23
2023-02-19T11:13:06.148Z,43.69
2023-02-19T11:15:36.529Z,43.55
2023-02-19T11:18:13.831Z,43.85
2023-02-19T11:21:02.963Z,43.98
2023-02-19T11:23:37.397Z,44.44
2023-02-19T11:26:15.755Z,44.82
2023-02-19T11:28:44.616Z,44.94
2023-02-19T11:31:24.792Z,45.40
2023-02-19T11:34:06.468Z,45.07
2023-02-19T11:36:37.001Z,45.32
2023-02-19T11:39:10.821Z,45.27
2023-02-19T11:42:20.672Z,45.40
2023-02-19T11:45:13.935Z,45.46
2023-02-19T11:48:09.861Z,45.45
2023-02-19T11:51:05.927Z,46.04
2023-02-19T11:53:37.382Z,46.29
2023-02-19T11:56:18.947Z,46.39
2023-02-19T11:59:02.640Z,46.44
2023-02-19T12:01:49.231Z,46.61
2023-02-19T12:04:32.307Z,46.62
2023-02-19T12:07:00.295Z,46.82
2023-02-19T12:09:43.670Z,47.28
2023-02-19T12:12:32.162Z,47.45
2023-02-19T12:15:32.074Z,47.44
2023-02-19T12:18:12.386Z,47.18
2023-02-19T12:20:55.012Z,47.13
2023-02-19T12:23:38.280Z,46.31
2023-02-19T12:26:25.278Z,46.39
2023-02-19T12:29:11.577Z,46.76
2023-02-19T12:32:30.835Z,47.00
2023-02-19T12:35:13.109Z,45.68
2023-02-19T12:37:53.022Z,45.29
2023-02-19T12:40:55.090Z,45.46
2023-02-19T12:43:24.623Z,44.93
2023-02-19T12:46:02.906Z,44.79
2023-02-19T12:48:40.426Z,45.07
2023-02-19T12:51:17.357Z,45.81
2023-02-19T12:53:57.355Z,46.71
2023-02-19T12:56:31.042Z,48.23
2023-02-19T12:59:06.733Z,50.62
2023-02-19T13:01:48.912Z,53.67
2023-02-19T13:04:30.744Z,55.47
2023-02-19T13:07:22.863Z,56.68
2023-02-19T13:09:53.862Z,57.36
2023-02-19T13:12:27.875Z,57.47
2023-02-19T13:15:00.804Z,57.84
2023-02-19T13:17:45.971Z,58.03
2023-02-19T13:20:35.691Z,59.49
2023-02-19T13:23:35.495Z,62.02
2023-02-19T13:26:38.930Z,62.98
2023-02-19T13:29:36.779Z,63.47
2023-02-19T13:32:14.115Z,64.15
2023-02-19T13:35:04.248Z,64.81
2023-02-19T13:37:34.806Z,64.99
2023-02-19T13:40:17.626Z,65.15
2023-02-19T13:42:54.882Z,65.22
2023-02-19T13:45:40.982Z,64.90
2023-02-19T13:48:24.540Z,65.69
2023-02-19T13:51:18.849Z,66.22
2023-02-19T13:53:48.251Z,65.81
2023-02-19T13:56:31.634Z,65.78
2023-02-19T13:59:13.890Z,65.74
2023-02-19T14:01:54.052Z,65.64
2023-02-19T14:04:25.377Z,65.73
2023-02-19T14:07:05.883Z,65.82
2023-02-19T14:09:37.247Z,66.07
2023-02-19T14:12:09.812Z,66.34
2023-02-19T14:14:39.599Z,66.58
2023-02-19T14:17:10.640Z,66.81
2023-02-19T14:19:41.528Z,67.04
2023-02-19T14:22:47.238Z,67.31
2023-02-19T14:25:27.405Z,67.10
2023-02-19T14:28:02.663Z,66.19
2023-02-19T14:30:33.521Z,65.48
2023-02-19T14:33:10.671Z,64.82
2023-02-19T14:35:44.900Z,63.73
2023-02-19T14:38:37.357Z,62.76
2023-02-19T14:41:06.949Z,62.75
2023-02-19T14:43:36.612Z,62.91
2023-02-19T14:46:29.401Z,63.04
2023-02-19T14:49:13.981Z,63.12
2023-02-19T14:51:45.944Z,63.39
2023-02-19T14:54:19.231Z,63.30
2023-02-19T14:56:52.290Z,63.33
2023-02-19T14:59:20.379Z,62.99
2023-02-19T15:02:13.466Z,62.66
2023-02-19T15:04:41.646Z,62.24
2023-02-19T15:07:17.585Z,61.86
2023-02-19T15:09:54.644Z,61.71
2023-02-19T15:12:29.284Z,61.69
2023-02-19T15:15:01.636Z,61.83
2023-02-19T15:17:32.403Z,61.91
2023-02-19T15:20:09.499Z,61.89
2023-02-19T15:22:41.623Z,61.87
2023-02-19T15:25:18.618Z,61.74
2023-02-19T15:27:47.429Z,61.73
2023-02-19T15:30:24.364Z,61.54
2023-02-19T15:32:58.183Z,61.60
2023-02-19T15:35:29.029Z,61.58
2023-02-19T15:37:57.340Z,61.74
2023-02-19T15:40:30.839Z,62.66
2023-02-19T15:43:00.582Z,64.60
2023-02-19T15:45:44.482Z,66.27
2023-02-19T15:48:20.367Z,68.10
2023-02-19T15:50:53.428Z,69.03
2023-02-19T15:53:25.934Z,69.17
2023-02-19T15:56:12.470Z,70.38
2023-02-19T15:58:55.786Z,71.95
2023-02-19T16:01:35.548Z,73.12
2023-02-19T16:04:06.734Z,74.13
2023-02-19T16:06:53.540Z,75.34
2023-02-19T16:09:40.234Z,75.77
2023-02-19T16:12:24.914Z,76.42
2023-02-19T16:14:53.987Z,77.83
2023-02-19T16:17:28.027Z,77.91
2023-02-19T16:20:00.895Z,78.15
2023-02-19T16:22:33.037Z,78.21
2023-02-19T16:25:05.008Z,78.52
2023-02-19T16:27:42.555Z,79.17
2023-02-19T16:30:16.980Z,79.46
2023-02-19T16:32:46.952Z,79.69
2023-02-19T16:35:38.326Z,80.24
2023-02-19T16:38:14.414Z,80.96
2023-02-19T16:40:45.607Z,81.40
2023-02-19T16:43:13.849Z,81.74
2023-02-19T16:45:46.869Z,82.32
2023-02-19T16:48:15.735Z,82.66
2023-02-19T16:50:46.366Z,82.93
2023-02-19T16:53:25.535Z,83.46
2023-02-19T16:55:56.900Z,84.01
2023-02-19T16:58:25.115Z,84.48
2023-02-19T17:00:53.511Z,85.41
2023-02-19T17:03:23.964Z,85.40
2023-02-19T17:05:53.131Z,85.81
2023-02-19T17:08:48.115Z,85.93
2023-02-19T17:11:18.171Z,86.45
2023-02-19T17:13:47.498Z,86.58
2023-02-19T17:16:27.840Z,86.90
2023-02-19T17:18:56.513Z,86.93
2023-02-19T17:21:28.386Z,86.67
2023-02-19T17:23:57.224Z,86.52
2023-02-19T17:26:28.167Z,86.36
2023-02-19T17:28:57.597Z,86.30
2023-02-19T17:31:26.370Z,86.16
2023-02-19T17:33:55.336Z,85.75
2023-02-19T17:36:35.795Z,85.29
2023-02-19T17:39:07.439Z,85.26
2023-02-19T17:41:36.135Z,84.74
2023-02-19T17:44:05.225Z,84.63
2023-02-19T17:46:34.734Z,84.44
2023-02-19T17:49:03.699Z,84.06
2023-02-19T17:51:32.421Z,83.54
2023-02-19T17:54:10.980Z,83.38
2023-02-19T17:56:43.501Z,83.10
2023-02-19T17:59:15.975Z,82.72
2023-02-19T18:01:56.869Z,82.54
2023-02-19T18:04:25.149Z,82.08
2023-02-19T18:06:54.083Z,81.72
2023-02-19T18:09:23.220Z,81.72
2023-02-19T18:11:51.712Z,81.81
2023-02-19T18:14:20.794Z,81.61
2023-02-19T18:16:50.692Z,81.45
2023-02-19T18:19:19.801Z,81.11
2023-02-19T18:21:48.258Z,81.36
2023-02-19T18:24:17.528Z,81.32
2023-02-19T18:26:54.045Z,81.56
2023-02-19T18:29:24.815Z,81.51
2023-02-19T18:31:53.498Z,81.14
2023-02-19T18:34:22.921Z,79.40
2023-02-19T18:36:51.916Z,75.66
2023-02-19T18:39:20.430Z,73.76
2023-02-19T18:41:52.889Z,73.91
2023-02-19T18:44:22.531Z,75.07
2023-02-19T18:46:51.944Z,75.83
2023-02-19T18:49:20.810Z,76.27
2023-02-19T18:51:49.838Z,76.18
2023-02-19T18:54:34.775Z,76.71
2023-02-19T18:57:04.590Z,76.34
2023-02-19T18:59:40.027Z,77.31
2023-02-19T19:02:18.905Z,77.77
2023-02-19T19:04:52.982Z,78.38
2023-02-19T19:07:21.818Z,79.42
2023-02-19T19:09:50.492Z,80.79
2023-02-19T19:15:06.419Z,83.38
2023-02-19T19:17:34.993Z,84.37
2023-02-19T19:20:04.166Z,84.87
2023-02-19T19:22:33.532Z,85.39
2023-02-19T19:25:15.529Z,85.98
2023-02-19T19:27:45.536Z,86.82
2023-02-19T19:30:14.782Z,87.22
2023-02-19T19:32:43.549Z,87.85
2023-02-19T19:35:12.662Z,88.35
2023-02-19T19:37:55.280Z,88.58
2023-02-19T19:40:44.164Z,88.58
2023-02-19T19:43:13.572Z,88.55
2023-02-19T19:45:43.902Z,88.81
2023-02-19T19:48:14.070Z,89.01
2023-02-19T19:51:00.954Z,89.86
2023-02-19T19:53:30.375Z,90.68
2023-02-19T19:56:09.381Z,90.91
2023-02-19T19:58:38.457Z,90.83
2023-02-19T20:01:07.448Z,91.04
2023-02-19T20:03:36.460Z,91.45
2023-02-19T20:06:05.225Z,92.15
2023-02-19T20:08:34.048Z,92.30
2023-02-19T20:11:07.211Z,92.54
2023-02-19T20:13:37.504Z,93.29
2023-02-19T20:16:08.205Z,93.89
2023-02-19T20:18:37.114Z,94.04
2023-02-19T20:21:10.297Z,94.24
2023-02-19T20:23:49.439Z,94.31
2023-02-19T20:26:36.196Z,94.47
2023-02-19T20:29:06.398Z,94.84
2023-02-19T20:31:36.019Z,94.88
2023-02-19T20:34:05.570Z,94.87
2023-02-19T20:36:51.197Z,95.01
2023-02-19T20:39:19.982Z,95.08
2023-02-19T20:41:52.415Z,95.50
2023-02-19T20:44:20.947Z,95.52
2023-02-19T20:46:52.385Z,95.51
2023-02-19T20:49:31.311Z,95.71
2023-02-19T20:52:02.746Z,95.86
2023-02-19T20:54:35.343Z,95.97
2023-02-19T20:57:05.878Z,96.42
2023-02-19T20:59:44.778Z,96.69
2023-02-19T21:02:31.789Z,96.75
2023-02-19T21:05:01.951Z,97.11
2023-02-19T21:07:30.902Z,97.03
2023-02-19T21:09:59.405Z,97.18
2023-02-19T21:12:27.927Z,97.03
2023-02-19T21:14:56.474Z,96.95
2023-02-19T21:17:24.757Z,97.13
2023-02-19T21:19:53.585Z,96.89
2023-02-19T21:22:22.239Z,96.55
2023-02-19T21:24:53.324Z,96.44
2023-02-19T21:27:21.857Z,96.31
2023-02-19T21:30:00.653Z,95.31
2023-02-19T21:32:29.274Z,94.27
2023-02-19T21:34:57.814Z,93.31
2023-02-19T21:37:26.270Z,92.26
2023-02-19T21:40:00.653Z,91.67
2023-02-19T21:42:29.737Z,91.46
2023-02-19T21:44:59.399Z,90.55
2023-02-19T21:47:29.151Z,89.69
2023-02-19T21:49:57.874Z,88.79
2023-02-19T21:52:27.223Z,88.05
2023-02-19T21:54:55.831Z,87.73
2023-02-19T21:57:24.813Z,87.85
2023-02-19T21:59:53.727Z,88.15
2023-02-19T22:02:22.533Z,88.30
2023-02-19T22:05:02.703Z,88.50
2023-02-19T22:07:31.264Z,88.79
2023-02-19T22:09:59.524Z,88.96
2023-02-19T22:12:27.754Z,89.15
2023-02-19T22:14:56.060Z,88.65
2023-02-19T22:17:24.251Z,87.38
2023-02-19T22:19:52.566Z,86.31
2023-02-19T22:22:20.861Z,85.76
2023-02-19T22:24:49.247Z,85.93
2023-02-19T22:27:17.502Z,86.18
2023-02-19T22:29:45.697Z,86.48
2023-02-19T22:32:13.984Z,86.54
2023-02-19T22:34:43.573Z,87.06
2023-02-19T22:37:11.904Z,87.71
2023-02-19T22:39:40.201Z,88.12
2023-02-19T22:42:08.510Z,88.26
2023-02-19T22:44:36.992Z,88.57
2023-02-19T22:47:05.388Z,88.99
2023-02-19T22:49:33.746Z,89.71
2023-02-19T22:52:11.941Z,89.71
2023-02-19T22:54:40.139Z,89.64
2023-02-19T22:57:08.316Z,89.77
2023-02-19T22:59:36.441Z,90.23
2023-02-19T23:02:04.650Z,90.47
2023-02-19T23:04:32.863Z,90.85
2023-02-19T23:07:01.222Z,91.13
2023-02-19T23:09:36.772Z,91.57
2023-02-19T23:12:08.520Z,91.75
2023-02-19T23:14:37.864Z,92.01
2023-02-19T23:17:06.165Z,91.68
2023-02-19T23:19:34.888Z,91.81
2023-02-19T23:22:03.447Z,91.83
2023-02-19T23:24:32.093Z,91.74
2023-02-19T23:27:00.742Z,91.90
2023-02-19T23:29:31.020Z,92.09
2023-02-19T23:32:09.475Z,91.83
2023-02-19T23:34:37.769Z,91.88
2023-02-19T23:37:06.843Z,91.78
2023-02-19T23:39:35.176Z,91.76
2023-02-19T23:42:03.565Z,91.58
2023-02-19T23:44:31.802Z,91.43
2023-02-19T23:47:00.233Z,91.22
2023-02-19T23:49:28.425Z,91.18
2023-02-19T23:51:56.832Z,91.18
2023-02-19T23:54:25.100Z,91.15
2023-02-19T23:56:53.276Z,91.02
2023-02-19T23:59:21.541Z,90.94
